sensor_id;sensor_type;location;lat;lon;timestamp;P1;durP1;ratioP1;P2;durP2;ratioP2
9789;SDS011;4934;50.852;8.098;2023-04-15T00:01:26;9.98;;;5.20;;
9789;SDS011;4934;50.852;8.098;2023-04-15T00:03:53;9.10;;;4.55;;
9789;SDS011;4934;50.852;8.098;2023-04-15T00:06:19;7.03;;;4.53;;
9789;SDS011;4934;50.852;8.098;2023-04-15T00:08:46;14.52;;;5.15;;
9789;SDS011;4934;50.852;8.098;2023-04-15T00:11:13;8.60;;;4.45;;
9789;SDS011;4934;50.852;8.098;2023-04-15T00:13:39;7.30;;;4.70;;
9789;SDS011;4934;50.852;8.098;2023-04-15T00:16:05;8.88;;;4.53;;
9789;SDS011;4934;50.852;8.098;2023-04-15T00:18:32;10.55;;;4.68;;
9789;SDS011;4934;50.852;8.098;2023-04-15T00:20:58;10.80;;;4.78;;
9789;SDS011;4934;50.852;8.098;2023-04-15T00:23:24;11.60;;;5.60;;
9789;SDS011;4934;50.852;8.098;2023-04-15T00:25:50;10.80;;;5.20;;
9789;SDS011;4934;50.852;8.098;2023-04-15T00:28:16;16.38;;;5.07;;
9789;SDS011;4934;50.852;8.098;2023-04-15T00:30:42;14.48;;;7.50;;
9789;SDS011;4934;50.852;8.098;2023-04-15T00:33:10;15.32;;;7.32;;
9789;SDS011;4934;50.852;8.098;2023-04-15T00:35:36;18.38;;;8.82;;
9789;SDS011;4934;50.852;8.098;2023-04-15T00:38:03;11.68;;;5.43;;
9789;SDS011;4934;50.852;8.098;2023-04-15T00:40:30;16.42;;;6.38;;
9789;SDS011;4934;50.852;8.098;2023-04-15T00:42:56;11.82;;;5.65;;
9789;SDS011;4934;50.852;8.098;2023-04-15T00:45:21;13.90;;;5.18;;
9789;SDS011;4934;50.852;8.098;2023-04-15T00:47:48;10.73;;;4.93;;
9789;SDS011;4934;50.852;8.098;2023-04-15T00:50:15;9.38;;;3.95;;
9789;SDS011;4934;50.852;8.098;2023-04-15T00:52:40;10.68;;;4.53;;
9789;SDS011;4934;50.852;8.098;2023-04-15T00:55:07;9.95;;;4.60;;
9789;SDS011;4934;50.852;8.098;2023-04-15T00:57:34;12.73;;;5.03;;
9789;SDS011;4934;50.852;8.098;2023-04-15T01:00:00;10.67;;;5.53;;
9789;SDS011;4934;50.852;8.098;2023-04-15T01:02:26;15.07;;;5.27;;
9789;SDS011;4934;50.852;8.098;2023-04-15T01:04:52;15.25;;;4.85;;
9789;SDS011;4934;50.852;8.098;2023-04-15T01:07:18;10.18;;;4.75;;
9789;SDS011;4934;50.852;8.098;2023-04-15T01:09:44;11.65;;;5.25;;
9789;SDS011;4934;50.852;8.098;2023-04-15T01:12:11;6.77;;;4.47;;
9789;SDS011;4934;50.852;8.098;2023-04-15T01:14:38;15.48;;;4.32;;
9789;SDS011;4934;50.852;8.098;2023-04-15T01:17:04;10.23;;;4.67;;
9789;SDS011;4934;50.852;8.098;2023-04-15T01:19:32;11.60;;;4.93;;
9789;SDS011;4934;50.852;8.098;2023-04-15T01:21:58;11.43;;;4.60;;
9789;SDS011;4934;50.852;8.098;2023-04-15T01:24:24;12.87;;;4.83;;
9789;SDS011;4934;50.852;8.098;2023-04-15T01:26:51;13.20;;;5.15;;
9789;SDS011;4934;50.852;8.098;2023-04-15T01:29:18;12.23;;;5.10;;
9789;SDS011;4934;50.852;8.098;2023-04-15T01:32:02;9.23;;;4.23;;
9789;SDS011;4934;50.852;8.098;2023-04-15T01:34:28;10.77;;;4.57;;
9789;SDS011;4934;50.852;8.098;2023-04-15T01:36:54;8.77;;;4.20;;
9789;SDS011;4934;50.852;8.098;2023-04-15T01:39:20;7.53;;;4.17;;
9789;SDS011;4934;50.852;8.098;2023-04-15T01:41:45;13.50;;;4.83;;
9789;SDS011;4934;50.852;8.098;2023-04-15T01:44:11;8.63;;;4.43;;
9789;SDS011;4934;50.852;8.098;2023-04-15T01:46:37;10.90;;;4.50;;
9789;SDS011;4934;50.852;8.098;2023-04-15T01:51:34;7.67;;;4.17;;
9789;SDS011;4934;50.852;8.098;2023-04-15T01:54:01;13.00;;;4.33;;
9789;SDS011;4934;50.852;8.098;2023-04-15T01:56:27;7.30;;;4.10;;
9789;SDS011;4934;50.852;8.098;2023-04-15T01:58:58;11.83;;;4.33;;
9789;SDS011;4934;50.852;8.098;2023-04-15T02:01:23;11.73;;;5.20;;
9789;SDS011;4934;50.852;8.098;2023-04-15T02:03:49;9.40;;;4.67;;
9789;SDS011;4934;50.852;8.098;2023-04-15T02:08:44;8.65;;;4.32;;
9789;SDS011;4934;50.852;8.098;2023-04-15T02:11:09;11.70;;;4.90;;
9789;SDS011;4934;50.852;8.098;2023-04-15T02:13:35;8.27;;;4.27;;
9789;SDS011;4934;50.852;8.098;2023-04-15T02:16:01;9.27;;;5.07;;
9789;SDS011;4934;50.852;8.098;2023-04-15T02:18:27;8.83;;;4.60;;
9789;SDS011;4934;50.852;8.098;2023-04-15T02:20:56;10.93;;;5.60;;
9789;SDS011;4934;50.852;8.098;2023-04-15T02:23:22;8.93;;;4.47;;
9789;SDS011;4934;50.852;8.098;2023-04-15T02:25:48;9.87;;;4.90;;
9789;SDS011;4934;50.852;8.098;2023-04-15T02:28:14;9.53;;;4.83;;
9789;SDS011;4934;50.852;8.098;2023-04-15T02:30:39;13.07;;;4.73;;
9789;SDS011;4934;50.852;8.098;2023-04-15T02:33:05;8.17;;;4.73;;
9789;SDS011;4934;50.852;8.098;2023-04-15T02:40:46;11.60;;;4.63;;
9789;SDS011;4934;50.852;8.098;2023-04-15T02:43:13;12.37;;;5.03;;
9789;SDS011;4934;50.852;8.098;2023-04-15T02:45:40;11.93;;;5.13;;
9789;SDS011;4934;50.852;8.098;2023-04-15T02:48:07;13.15;;;5.78;;
9789;SDS011;4934;50.852;8.098;2023-04-15T02:50:33;12.53;;;5.30;;
9789;SDS011;4934;50.852;8.098;2023-04-15T02:52:59;8.33;;;4.80;;
9789;SDS011;4934;50.852;8.098;2023-04-15T02:55:26;10.13;;;4.47;;
9789;SDS011;4934;50.852;8.098;2023-04-15T02:57:52;9.63;;;4.63;;
9789;SDS011;4934;50.852;8.098;2023-04-15T03:00:18;10.77;;;5.27;;
9789;SDS011;4934;50.852;8.098;2023-04-15T03:02:44;9.40;;;5.60;;
9789;SDS011;4934;50.852;8.098;2023-04-15T03:05:11;10.47;;;4.70;;
9789;SDS011;4934;50.852;8.098;2023-04-15T03:07:38;11.33;;;4.67;;
9789;SDS011;4934;50.852;8.098;2023-04-15T03:10:11;12.13;;;4.93;;
9789;SDS011;4934;50.852;8.098;2023-04-15T03:12:37;6.10;;;3.83;;
9789;SDS011;4934;50.852;8.098;2023-04-15T03:15:03;10.63;;;5.13;;
9789;SDS011;4934;50.852;8.098;2023-04-15T03:17:30;15.23;;;5.53;;
9789;SDS011;4934;50.852;8.098;2023-04-15T03:19:56;8.13;;;4.33;;
9789;SDS011;4934;50.852;8.098;2023-04-15T03:22:21;8.57;;;4.97;;
9789;SDS011;4934;50.852;8.098;2023-04-15T03:24:47;14.43;;;4.80;;
9789;SDS011;4934;50.852;8.098;2023-04-15T03:27:12;12.27;;;5.13;;
9789;SDS011;4934;50.852;8.098;2023-04-15T03:29:38;13.50;;;5.90;;
9789;SDS011;4934;50.852;8.098;2023-04-15T03:32:03;12.27;;;4.60;;
9789;SDS011;4934;50.852;8.098;2023-04-15T03:34:40;11.37;;;4.80;;
9789;SDS011;4934;50.852;8.098;2023-04-15T03:37:06;8.20;;;4.33;;
9789;SDS011;4934;50.852;8.098;2023-04-15T03:39:32;8.97;;;5.03;;
9789;SDS011;4934;50.852;8.098;2023-04-15T03:41:58;7.43;;;4.30;;
9789;SDS011;4934;50.852;8.098;2023-04-15T03:44:25;8.40;;;3.97;;
9789;SDS011;4934;50.852;8.098;2023-04-15T03:46:51;12.53;;;4.63;;
9789;SDS011;4934;50.852;8.098;2023-04-15T03:49:34;10.87;;;4.73;;
9789;SDS011;4934;50.852;8.098;2023-04-15T03:52:00;13.93;;;4.93;;
9789;SDS011;4934;50.852;8.098;2023-04-15T03:54:26;9.60;;;4.77;;
9789;SDS011;4934;50.852;8.098;2023-04-15T03:56:51;14.90;;;4.97;;
9789;SDS011;4934;50.852;8.098;2023-04-15T03:59:17;13.50;;;4.87;;
9789;SDS011;4934;50.852;8.098;2023-04-15T04:01:43;11.63;;;4.93;;
9789;SDS011;4934;50.852;8.098;2023-04-15T04:04:08;12.33;;;4.80;;
9789;SDS011;4934;50.852;8.098;2023-04-15T04:06:34;9.30;;;4.87;;
9789;SDS011;4934;50.852;8.098;2023-04-15T04:09:00;11.23;;;5.30;;
9789;SDS011;4934;50.852;8.098;2023-04-15T04:11:26;10.33;;;5.40;;
9789;SDS011;4934;50.852;8.098;2023-04-15T04:13:52;10.87;;;5.53;;
9789;SDS011;4934;50.852;8.098;2023-04-15T04:16:18;11.80;;;5.70;;
9789;SDS011;4934;50.852;8.098;2023-04-15T04:18:44;16.87;;;5.60;;
9789;SDS011;4934;50.852;8.098;2023-04-15T04:21:09;13.40;;;5.90;;
9789;SDS011;4934;50.852;8.098;2023-04-15T04:23:35;9.50;;;4.90;;
9789;SDS011;4934;50.852;8.098;2023-04-15T04:26:01;16.07;;;5.47;;
9789;SDS011;4934;50.852;8.098;2023-04-15T04:28:26;11.20;;;5.13;;
9789;SDS011;4934;50.852;8.098;2023-04-15T04:30:52;10.93;;;5.17;;
9789;SDS011;4934;50.852;8.098;2023-04-15T04:33:18;10.00;;;4.90;;
9789;SDS011;4934;50.852;8.098;2023-04-15T04:35:43;11.73;;;5.00;;
9789;SDS011;4934;50.852;8.098;2023-04-15T04:38:09;10.43;;;4.27;;
9789;SDS011;4934;50.852;8.098;2023-04-15T04:40:35;13.07;;;6.00;;
9789;SDS011;4934;50.852;8.098;2023-04-15T04:43:00;10.17;;;4.80;;
9789;SDS011;4934;50.852;8.098;2023-04-15T04:45:26;11.33;;;5.03;;
9789;SDS011;4934;50.852;8.098;2023-04-15T04:47:52;11.30;;;5.77;;
9789;SDS011;4934;50.852;8.098;2023-04-15T04:50:17;11.80;;;5.80;;
9789;SDS011;4934;50.852;8.098;2023-04-15T04:52:43;10.13;;;5.43;;
9789;SDS011;4934;50.852;8.098;2023-04-15T04:55:08;11.97;;;6.17;;
9789;SDS011;4934;50.852;8.098;2023-04-15T04:57:34;15.17;;;5.60;;
9789;SDS011;4934;50.852;8.098;2023-04-15T05:00:00;15.70;;;5.77;;
9789;SDS011;4934;50.852;8.098;2023-04-15T05:02:29;12.23;;;6.13;;
9789;SDS011;4934;50.852;8.098;2023-04-15T05:04:56;12.73;;;5.73;;
9789;SDS011;4934;50.852;8.098;2023-04-15T05:07:25;14.03;;;5.60;;
9789;SDS011;4934;50.852;8.098;2023-04-15T05:09:51;13.03;;;6.20;;
9789;SDS011;4934;50.852;8.098;2023-04-15T05:12:17;12.00;;;5.37;;
9789;SDS011;4934;50.852;8.098;2023-04-15T05:14:42;15.13;;;6.03;;
9789;SDS011;4934;50.852;8.098;2023-04-15T05:17:08;15.87;;;6.60;;
9789;SDS011;4934;50.852;8.098;2023-04-15T05:19:35;16.30;;;6.13;;
9789;SDS011;4934;50.852;8.098;2023-04-15T05:22:01;11.93;;;5.77;;
9789;SDS011;4934;50.852;8.098;2023-04-15T05:24:27;16.03;;;6.30;;
9789;SDS011;4934;50.852;8.098;2023-04-15T05:26:53;12.33;;;6.20;;
9789;SDS011;4934;50.852;8.098;2023-04-15T05:29:19;20.17;;;6.83;;
9789;SDS011;4934;50.852;8.098;2023-04-15T05:31:44;12.50;;;6.17;;
9789;SDS011;4934;50.852;8.098;2023-04-15T05:34:10;13.20;;;5.97;;
9789;SDS011;4934;50.852;8.098;2023-04-15T05:36:40;17.57;;;7.03;;
9789;SDS011;4934;50.852;8.098;2023-04-15T05:39:06;26.03;;;10.50;;
9789;SDS011;4934;50.852;8.098;2023-04-15T05:41:31;27.13;;;12.53;;
9789;SDS011;4934;50.852;8.098;2023-04-15T05:43:57;62.13;;;26.90;;
9789;SDS011;4934;50.852;8.098;2023-04-15T05:46:23;34.60;;;15.50;;
9789;SDS011;4934;50.852;8.098;2023-04-15T05:51:49;18.47;;;8.47;;
9789;SDS011;4934;50.852;8.098;2023-04-15T05:54:15;20.67;;;8.67;;
9789;SDS011;4934;50.852;8.098;2023-04-15T05:56:41;20.57;;;8.97;;
9789;SDS011;4934;50.852;8.098;2023-04-15T05:59:06;14.63;;;7.97;;
9789;SDS011;4934;50.852;8.098;2023-04-15T06:01:32;27.83;;;11.87;;
9789;SDS011;4934;50.852;8.098;2023-04-15T06:03:58;30.13;;;11.27;;
9789;SDS011;4934;50.852;8.098;2023-04-15T06:06:24;24.13;;;9.97;;
9789;SDS011;4934;50.852;8.098;2023-04-15T06:08:51;18.33;;;9.30;;
9789;SDS011;4934;50.852;8.098;2023-04-15T06:11:17;18.03;;;8.37;;
9789;SDS011;4934;50.852;8.098;2023-04-15T06:13:45;17.10;;;8.63;;
9789;SDS011;4934;50.852;8.098;2023-04-15T06:16:10;18.90;;;9.97;;
9789;SDS011;4934;50.852;8.098;2023-04-15T06:18:36;37.13;;;10.63;;
9789;SDS011;4934;50.852;8.098;2023-04-15T06:21:02;24.53;;;11.03;;
9789;SDS011;4934;50.852;8.098;2023-04-15T06:23:28;20.43;;;9.17;;
9789;SDS011;4934;50.852;8.098;2023-04-15T06:25:54;19.13;;;11.23;;
9789;SDS011;4934;50.852;8.098;2023-04-15T06:28:19;17.98;;;8.65;;
9789;SDS011;4934;50.852;8.098;2023-04-15T06:30:45;21.70;;;8.93;;
9789;SDS011;4934;50.852;8.098;2023-04-15T06:33:11;21.92;;;9.75;;
9789;SDS011;4934;50.852;8.098;2023-04-15T06:35:37;20.48;;;9.23;;
9789;SDS011;4934;50.852;8.098;2023-04-15T06:38:03;21.38;;;8.95;;
9789;SDS011;4934;50.852;8.098;2023-04-15T06:40:29;23.67;;;9.40;;
9789;SDS011;4934;50.852;8.098;2023-04-15T06:42:55;20.50;;;8.60;;
9789;SDS011;4934;50.852;8.098;2023-04-15T06:45:20;19.10;;;9.23;;
9789;SDS011;4934;50.852;8.098;2023-04-15T06:47:46;22.20;;;10.38;;
9789;SDS011;4934;50.852;8.098;2023-04-15T06:50:12;18.27;;;9.32;;
9789;SDS011;4934;50.852;8.098;2023-04-15T06:52:37;23.48;;;9.93;;
9789;SDS011;4934;50.852;8.098;2023-04-15T06:55:03;20.92;;;9.80;;
9789;SDS011;4934;50.852;8.098;2023-04-15T06:57:39;19.85;;;8.75;;
9789;SDS011;4934;50.852;8.098;2023-04-15T07:00:05;18.27;;;8.73;;
9789;SDS011;4934;50.852;8.098;2023-04-15T07:02:31;23.52;;;10.00;;
9789;SDS011;4934;50.852;8.098;2023-04-15T07:04:57;21.88;;;10.48;;
9789;SDS011;4934;50.852;8.098;2023-04-15T07:07:23;18.52;;;9.75;;
9789;SDS011;4934;50.852;8.098;2023-04-15T07:09:49;18.20;;;9.93;;
9789;SDS011;4934;50.852;8.098;2023-04-15T07:12:17;19.25;;;9.23;;
9789;SDS011;4934;50.852;8.098;2023-04-15T07:14:43;19.95;;;8.82;;
9789;SDS011;4934;50.852;8.098;2023-04-15T07:17:09;20.70;;;9.60;;
9789;SDS011;4934;50.852;8.098;2023-04-15T07:19:35;23.45;;;9.18;;
9789;SDS011;4934;50.852;8.098;2023-04-15T07:22:01;22.55;;;9.35;;
9789;SDS011;4934;50.852;8.098;2023-04-15T07:24:27;21.40;;;9.45;;
9789;SDS011;4934;50.852;8.098;2023-04-15T07:26:53;18.50;;;10.02;;
9789;SDS011;4934;50.852;8.098;2023-04-15T07:29:21;22.05;;;8.95;;
9789;SDS011;4934;50.852;8.098;2023-04-15T07:31:47;24.95;;;9.68;;
9789;SDS011;4934;50.852;8.098;2023-04-15T07:34:13;22.33;;;8.80;;
9789;SDS011;4934;50.852;8.098;2023-04-15T07:36:38;15.73;;;8.57;;
9789;SDS011;4934;50.852;8.098;2023-04-15T07:39:04;18.63;;;8.38;;
9789;SDS011;4934;50.852;8.098;2023-04-15T07:41:30;18.70;;;8.43;;
9789;SDS011;4934;50.852;8.098;2023-04-15T07:43:56;16.30;;;8.25;;
9789;SDS011;4934;50.852;8.098;2023-04-15T07:46:21;15.75;;;7.15;;
9789;SDS011;4934;50.852;8.098;2023-04-15T07:48:48;18.95;;;9.65;;
9789;SDS011;4934;50.852;8.098;2023-04-15T07:51:14;13.95;;;6.85;;
9789;SDS011;4934;50.852;8.098;2023-04-15T07:53:41;10.43;;;5.05;;
9789;SDS011;4934;50.852;8.098;2023-04-15T07:56:08;10.38;;;5.57;;
9789;SDS011;4934;50.852;8.098;2023-04-15T07:58:34;6.13;;;3.47;;
9789;SDS011;4934;50.852;8.098;2023-04-15T08:01:00;8.45;;;3.75;;
9789;SDS011;4934;50.852;8.098;2023-04-15T08:03:26;5.22;;;2.70;;
9789;SDS011;4934;50.852;8.098;2023-04-15T08:05:52;5.32;;;2.97;;
9789;SDS011;4934;50.852;8.098;2023-04-15T08:08:18;5.20;;;2.78;;
9789;SDS011;4934;50.852;8.098;2023-04-15T08:10:44;7.15;;;2.47;;
9789;SDS011;4934;50.852;8.098;2023-04-15T08:13:09;3.35;;;2.03;;
9789;SDS011;4934;50.852;8.098;2023-04-15T08:15:35;3.92;;;2.40;;
9789;SDS011;4934;50.852;8.098;2023-04-15T08:18:01;2.47;;;1.67;;
9789;SDS011;4934;50.852;8.098;2023-04-15T08:20:27;3.78;;;2.22;;
9789;SDS011;4934;50.852;8.098;2023-04-15T08:22:53;4.93;;;2.30;;
9789;SDS011;4934;50.852;8.098;2023-04-15T08:25:18;6.40;;;2.22;;
9789;SDS011;4934;50.852;8.098;2023-04-15T08:27:44;5.18;;;2.60;;
9789;SDS011;4934;50.852;8.098;2023-04-15T08:30:10;3.58;;;2.45;;
9789;SDS011;4934;50.852;8.098;2023-04-15T08:32:36;4.55;;;2.38;;
9789;SDS011;4934;50.852;8.098;2023-04-15T08:35:02;8.40;;;2.22;;
9789;SDS011;4934;50.852;8.098;2023-04-15T08:37:27;3.72;;;2.33;;
9789;SDS011;4934;50.852;8.098;2023-04-15T08:39:53;3.72;;;2.35;;
9789;SDS011;4934;50.852;8.098;2023-04-15T08:42:22;4.85;;;2.40;;
9789;SDS011;4934;50.852;8.098;2023-04-15T08:44:51;5.05;;;2.40;;
9789;SDS011;4934;50.852;8.098;2023-04-15T08:47:19;5.05;;;2.47;;
9789;SDS011;4934;50.852;8.098;2023-04-15T08:49:48;6.03;;;3.13;;
9789;SDS011;4934;50.852;8.098;2023-04-15T08:52:17;4.85;;;2.75;;
9789;SDS011;4934;50.852;8.098;2023-04-15T08:54:45;8.55;;;2.80;;
9789;SDS011;4934;50.852;8.098;2023-04-15T08:57:11;5.75;;;2.50;;
9789;SDS011;4934;50.852;8.098;2023-04-15T08:59:38;6.95;;;3.40;;
9789;SDS011;4934;50.852;8.098;2023-04-15T09:02:06;7.23;;;3.23;;
9789;SDS011;4934;50.852;8.098;2023-04-15T09:04:33;6.53;;;3.42;;
9789;SDS011;4934;50.852;8.098;2023-04-15T09:06:59;4.43;;;2.85;;
9789;SDS011;4934;50.852;8.098;2023-04-15T09:09:25;8.50;;;3.40;;
9789;SDS011;4934;50.852;8.098;2023-04-15T09:11:51;7.07;;;3.08;;
9789;SDS011;4934;50.852;8.098;2023-04-15T09:14:17;5.90;;;2.65;;
9789;SDS011;4934;50.852;8.098;2023-04-15T09:16:55;4.20;;;2.38;;
9789;SDS011;4934;50.852;8.098;2023-04-15T09:19:25;5.32;;;2.83;;
9789;SDS011;4934;50.852;8.098;2023-04-15T09:21:55;5.40;;;2.55;;
9789;SDS011;4934;50.852;8.098;2023-04-15T09:24:22;6.32;;;3.03;;
9789;SDS011;4934;50.852;8.098;2023-04-15T09:26:51;4.60;;;2.88;;
9789;SDS011;4934;50.852;8.098;2023-04-15T09:29:18;4.30;;;2.90;;
9789;SDS011;4934;50.852;8.098;2023-04-15T09:31:44;5.50;;;3.28;;
9789;SDS011;4934;50.852;8.098;2023-04-15T09:34:10;6.25;;;2.70;;
9789;SDS011;4934;50.852;8.098;2023-04-15T09:39:13;6.97;;;3.15;;
9789;SDS011;4934;50.852;8.098;2023-04-15T09:41:38;5.55;;;3.15;;
9789;SDS011;4934;50.852;8.098;2023-04-15T09:44:05;9.07;;;3.50;;
9789;SDS011;4934;50.852;8.098;2023-04-15T09:46:42;6.97;;;3.90;;
9789;SDS011;4934;50.852;8.098;2023-04-15T09:49:09;6.63;;;3.80;;
9789;SDS011;4934;50.852;8.098;2023-04-15T09:51:35;5.90;;;3.35;;
9789;SDS011;4934;50.852;8.098;2023-04-15T09:54:01;6.22;;;3.53;;
9789;SDS011;4934;50.852;8.098;2023-04-15T09:56:36;6.78;;;3.50;;
9789;SDS011;4934;50.852;8.098;2023-04-15T09:59:06;7.47;;;3.80;;
9789;SDS011;4934;50.852;8.098;2023-04-15T10:01:32;8.68;;;3.85;;
9789;SDS011;4934;50.852;8.098;2023-04-15T10:03:58;7.53;;;4.20;;
9789;SDS011;4934;50.852;8.098;2023-04-15T10:06:28;7.55;;;3.80;;
9789;SDS011;4934;50.852;8.098;2023-04-15T10:08:54;8.02;;;4.32;;
9789;SDS011;4934;50.852;8.098;2023-04-15T10:11:21;9.65;;;4.50;;
9789;SDS011;4934;50.852;8.098;2023-04-15T10:13:48;6.93;;;4.43;;
9789;SDS011;4934;50.852;8.098;2023-04-15T10:16:15;9.50;;;5.40;;
9789;SDS011;4934;50.852;8.098;2023-04-15T10:18:50;7.55;;;4.80;;
9789;SDS011;4934;50.852;8.098;2023-04-15T10:21:19;10.90;;;5.32;;
9789;SDS011;4934;50.852;8.098;2023-04-15T10:23:47;11.15;;;5.38;;
9789;SDS011;4934;50.852;8.098;2023-04-15T10:26:14;8.98;;;5.20;;
9789;SDS011;4934;50.852;8.098;2023-04-15T10:28:44;9.27;;;4.35;;
9789;SDS011;4934;50.852;8.098;2023-04-15T10:31:12;10.38;;;4.32;;
9789;SDS011;4934;50.852;8.098;2023-04-15T10:33:39;8.15;;;4.22;;
9789;SDS011;4934;50.852;8.098;2023-04-15T10:36:06;9.48;;;5.13;;
9789;SDS011;4934;50.852;8.098;2023-04-15T10:46:43;6.38;;;4.07;;
9789;SDS011;4934;50.852;8.098;2023-04-15T10:49:16;7.65;;;4.40;;
9789;SDS011;4934;50.852;8.098;2023-04-15T10:51:50;9.15;;;5.45;;
9789;SDS011;4934;50.852;8.098;2023-04-15T10:57:36;10.75;;;6.25;;
9789;SDS011;4934;50.852;8.098;2023-04-15T10:59:58;10.20;;;5.45;;
9789;SDS011;4934;50.852;8.098;2023-04-15T11:02:45;9.48;;;5.30;;
9789;SDS011;4934;50.852;8.098;2023-04-15T11:05:18;12.75;;;5.75;;
9789;SDS011;4934;50.852;8.098;2023-04-15T11:12:44;10.82;;;5.65;;
9789;SDS011;4934;50.852;8.098;2023-04-15T11:17:58;9.77;;;5.95;;
9789;SDS011;4934;50.852;8.098;2023-04-15T11:20:33;12.10;;;6.93;;
9789;SDS011;4934;50.852;8.098;2023-04-15T11:22:59;10.98;;;7.07;;
9789;SDS011;4934;50.852;8.098;2023-04-15T11:25:25;13.73;;;7.30;;
9789;SDS011;4934;50.852;8.098;2023-04-15T11:27:59;12.68;;;7.50;;
9789;SDS011;4934;50.852;8.098;2023-04-15T11:30:27;10.27;;;6.60;;
9789;SDS011;4934;50.852;8.098;2023-04-15T11:32:58;14.07;;;7.60;;
9789;SDS011;4934;50.852;8.098;2023-04-15T11:35:31;11.88;;;6.55;;
9789;SDS011;4934;50.852;8.098;2023-04-15T11:40:29;14.13;;;7.30;;
9789;SDS011;4934;50.852;8.098;2023-04-15T11:43:07;14.35;;;7.00;;
9789;SDS011;4934;50.852;8.098;2023-04-15T11:45:56;11.65;;;7.35;;
9789;SDS011;4934;50.852;8.098;2023-04-15T11:48:24;16.02;;;8.18;;
9789;SDS011;4934;50.852;8.098;2023-04-15T11:53:20;15.23;;;7.70;;
9789;SDS011;4934;50.852;8.098;2023-04-15T11:55:47;14.25;;;7.40;;
9789;SDS011;4934;50.852;8.098;2023-04-15T11:58:18;13.60;;;6.43;;
9789;SDS011;4934;50.852;8.098;2023-04-15T12:00:50;13.60;;;6.75;;
9789;SDS011;4934;50.852;8.098;2023-04-15T12:03:35;13.00;;;7.18;;
9789;SDS011;4934;50.852;8.098;2023-04-15T12:13:52;8.63;;;5.05;;
9789;SDS011;4934;50.852;8.098;2023-04-15T12:16:20;10.23;;;4.85;;
9789;SDS011;4934;50.852;8.098;2023-04-15T12:18:55;10.85;;;5.30;;
9789;SDS011;4934;50.852;8.098;2023-04-15T12:21:23;8.85;;;5.43;;
9789;SDS011;4934;50.852;8.098;2023-04-15T12:23:50;8.55;;;4.25;;
9789;SDS011;4934;50.852;8.098;2023-04-15T12:28:53;8.60;;;4.07;;
9789;SDS011;4934;50.852;8.098;2023-04-15T12:31:26;8.50;;;4.60;;
9789;SDS011;4934;50.852;8.098;2023-04-15T12:33:54;29.33;;;11.75;;
9789;SDS011;4934;50.852;8.098;2023-04-15T12:36:20;10.60;;;5.55;;
9789;SDS011;4934;50.852;8.098;2023-04-15T12:38:46;9.93;;;4.93;;
9789;SDS011;4934;50.852;8.098;2023-04-15T12:41:11;9.50;;;5.03;;
9789;SDS011;4934;50.852;8.098;2023-04-15T12:43:37;7.15;;;4.50;;
9789;SDS011;4934;50.852;8.098;2023-04-15T12:46:03;8.88;;;4.28;;
9789;SDS011;4934;50.852;8.098;2023-04-15T12:48:29;9.70;;;4.22;;
9789;SDS011;4934;50.852;8.098;2023-04-15T12:50:54;8.07;;;4.38;;
9789;SDS011;4934;50.852;8.098;2023-04-15T12:53:20;7.97;;;4.28;;
9789;SDS011;4934;50.852;8.098;2023-04-15T12:55:46;9.52;;;4.72;;
9789;SDS011;4934;50.852;8.098;2023-04-15T12:58:14;9.25;;;4.38;;
9789;SDS011;4934;50.852;8.098;2023-04-15T13:00:40;9.20;;;4.55;;
9789;SDS011;4934;50.852;8.098;2023-04-15T13:03:05;7.85;;;3.63;;
9789;SDS011;4934;50.852;8.098;2023-04-15T13:05:31;7.72;;;4.20;;
9789;SDS011;4934;50.852;8.098;2023-04-15T13:07:56;7.00;;;3.75;;
9789;SDS011;4934;50.852;8.098;2023-04-15T13:10:22;6.70;;;3.45;;
9789;SDS011;4934;50.852;8.098;2023-04-15T13:12:48;5.85;;;3.47;;
9789;SDS011;4934;50.852;8.098;2023-04-15T13:15:18;7.85;;;3.72;;
9789;SDS011;4934;50.852;8.098;2023-04-15T13:17:46;5.78;;;3.22;;
9789;SDS011;4934;50.852;8.098;2023-04-15T13:20:12;6.22;;;3.25;;
9789;SDS011;4934;50.852;8.098;2023-04-15T13:22:37;5.75;;;3.22;;
9789;SDS011;4934;50.852;8.098;2023-04-15T13:25:03;6.55;;;3.05;;
9789;SDS011;4934;50.852;8.098;2023-04-15T13:27:29;6.65;;;3.22;;
9789;SDS011;4934;50.852;8.098;2023-04-15T13:29:55;4.90;;;2.90;;
9789;SDS011;4934;50.852;8.098;2023-04-15T13:32:21;6.47;;;3.38;;
9789;SDS011;4934;50.852;8.098;2023-04-15T13:34:46;8.23;;;3.03;;
9789;SDS011;4934;50.852;8.098;2023-04-15T13:37:12;5.10;;;2.70;;
9789;SDS011;4934;50.852;8.098;2023-04-15T13:39:38;6.32;;;3.30;;
9789;SDS011;4934;50.852;8.098;2023-04-15T13:42:10;6.70;;;3.03;;
9789;SDS011;4934;50.852;8.098;2023-04-15T13:44:36;7.00;;;3.20;;
9789;SDS011;4934;50.852;8.098;2023-04-15T13:47:02;6.70;;;3.25;;
9789;SDS011;4934;50.852;8.098;2023-04-15T13:49:28;8.35;;;3.58;;
9789;SDS011;4934;50.852;8.098;2023-04-15T13:51:53;6.80;;;3.65;;
9789;SDS011;4934;50.852;8.098;2023-04-15T13:54:19;7.53;;;3.95;;
9789;SDS011;4934;50.852;8.098;2023-04-15T13:56:44;7.28;;;3.63;;
9789;SDS011;4934;50.852;8.098;2023-04-15T13:59:10;6.30;;;3.33;;
9789;SDS011;4934;50.852;8.098;2023-04-15T14:01:35;6.47;;;3.10;;
9789;SDS011;4934;50.852;8.098;2023-04-15T14:04:01;5.65;;;2.88;;
9789;SDS011;4934;50.852;8.098;2023-04-15T14:06:44;7.30;;;2.90;;
9789;SDS011;4934;50.852;8.098;2023-04-15T14:09:09;9.82;;;4.78;;
9789;SDS011;4934;50.852;8.098;2023-04-15T14:11:37;13.32;;;7.47;;
9789;SDS011;4934;50.852;8.098;2023-04-15T14:14:03;12.18;;;6.63;;
9789;SDS011;4934;50.852;8.098;2023-04-15T14:16:28;4.65;;;2.78;;
9789;SDS011;4934;50.852;8.098;2023-04-15T14:18:56;4.65;;;2.83;;
9789;SDS011;4934;50.852;8.098;2023-04-15T14:21:22;8.32;;;4.88;;
9789;SDS011;4934;50.852;8.098;2023-04-15T14:23:47;4.50;;;2.72;;
9789;SDS011;4934;50.852;8.098;2023-04-15T14:26:13;9.75;;;6.82;;
9789;SDS011;4934;50.852;8.098;2023-04-15T14:28:39;16.85;;;11.43;;
9789;SDS011;4934;50.852;8.098;2023-04-15T14:31:11;6.25;;;3.90;;
9789;SDS011;4934;50.852;8.098;2023-04-15T14:33:36;5.90;;;3.47;;
9789;SDS011;4934;50.852;8.098;2023-04-15T14:36:06;4.55;;;2.88;;
9789;SDS011;4934;50.852;8.098;2023-04-15T14:38:40;3.38;;;2.10;;
9789;SDS011;4934;50.852;8.098;2023-04-15T14:46:33;4.50;;;2.95;;
9789;SDS011;4934;50.852;8.098;2023-04-15T14:49:09;4.75;;;2.60;;
9789;SDS011;4934;50.852;8.098;2023-04-15T14:51:35;4.43;;;3.17;;
9789;SDS011;4934;50.852;8.098;2023-04-15T14:54:00;5.32;;;2.78;;
9789;SDS011;4934;50.852;8.098;2023-04-15T14:56:27;5.80;;;3.05;;
9789;SDS011;4934;50.852;8.098;2023-04-15T14:58:52;4.28;;;2.53;;
9789;SDS011;4934;50.852;8.098;2023-04-15T15:01:18;5.78;;;3.25;;
9789;SDS011;4934;50.852;8.098;2023-04-15T15:03:46;3.95;;;2.72;;
9789;SDS011;4934;50.852;8.098;2023-04-15T15:06:13;6.25;;;3.50;;
9789;SDS011;4934;50.852;8.098;2023-04-15T15:08:39;4.88;;;3.00;;
9789;SDS011;4934;50.852;8.098;2023-04-15T15:11:07;4.95;;;2.92;;
9789;SDS011;4934;50.852;8.098;2023-04-15T15:13:33;4.47;;;3.00;;
9789;SDS011;4934;50.852;8.098;2023-04-15T15:15:59;4.93;;;3.22;;
9789;SDS011;4934;50.852;8.098;2023-04-15T15:18:24;6.25;;;3.45;;
9789;SDS011;4934;50.852;8.098;2023-04-15T15:20:50;5.22;;;2.90;;
9789;SDS011;4934;50.852;8.098;2023-04-15T15:23:16;4.82;;;2.65;;
9789;SDS011;4934;50.852;8.098;2023-04-15T15:25:42;5.80;;;3.30;;
9789;SDS011;4934;50.852;8.098;2023-04-15T15:28:07;6.85;;;3.40;;
9789;SDS011;4934;50.852;8.098;2023-04-15T15:30:33;6.00;;;3.30;;
9789;SDS011;4934;50.852;8.098;2023-04-15T15:33:06;5.07;;;3.03;;
9789;SDS011;4934;50.852;8.098;2023-04-15T15:35:39;7.53;;;3.28;;
9789;SDS011;4934;50.852;8.098;2023-04-15T15:38:05;5.78;;;3.33;;
9789;SDS011;4934;50.852;8.098;2023-04-15T15:40:30;6.38;;;3.10;;
9789;SDS011;4934;50.852;8.098;2023-04-15T15:42:56;5.43;;;3.10;;
9789;SDS011;4934;50.852;8.098;2023-04-15T15:45:21;9.27;;;4.20;;
9789;SDS011;4934;50.852;8.098;2023-04-15T15:47:47;5.75;;;3.30;;
9789;SDS011;4934;50.852;8.098;2023-04-15T15:50:28;4.82;;;3.15;;
9789;SDS011;4934;50.852;8.098;2023-04-15T15:52:54;4.28;;;2.90;;
9789;SDS011;4934;50.852;8.098;2023-04-15T15:55:19;4.88;;;2.55;;
9789;SDS011;4934;50.852;8.098;2023-04-15T15:57:46;4.88;;;3.05;;
9789;SDS011;4934;50.852;8.098;2023-04-15T16:00:12;5.28;;;2.35;;
9789;SDS011;4934;50.852;8.098;2023-04-15T16:02:38;4.88;;;2.72;;